Time;durP1;ratioP1;P1;durP2;ratioP2;P2;SDS_P1;SDS_P2;PMS_P1;PMS_P2;Temp;Humidity;BMP_temperature;BMP_pressure;BME280_temperature;BME280_humidity;BME280_pressure;Samples;Min_cycle;Max_cycle;Signal;HPM_P1;HPM_P2
2024/02/23 00:01:47;;;;;;;1.80;0.65;;;6.00;99.90;;;;;;5041500;28;20046;-35
2024/02/23 00:04:13;;;;;;;1.42;0.70;;;6.00;99.90;;;;;;5031091;28;20104;-36
2024/02/23 00:06:38;;;;;;;1.38;1.00;;;6.00;99.90;;;;;;5040954;28;20032;-35
2024/02/23 00:09:04;;;;;;;2.40;1.10;;;6.00;99.90;;;;;;5041187;28;20017;-37
2024/02/23 00:11:30;;;;;;;3.75;0.90;;;6.00;99.90;;;;;;5041294;28;20056;-35
2024/02/23 00:13:59;;;;;;;3.05;0.95;;;6.00;99.90;;;;;;5040688;28;20025;-36
2024/02/23 00:16:26;;;;;;;2.30;0.70;;;6.00;99.90;;;;;;5040982;28;20020;-36
2024/02/23 00:18:52;;;;;;;3.17;0.60;;;6.00;99.90;;;;;;5040976;28;20037;-31
2024/02/23 00:21:17;;;;;;;1.98;0.73;;;6.00;99.90;;;;;;5041369;28;20110;-36
2024/02/23 00:23:45;;;;;;;3.20;0.63;;;6.00;99.90;;;;;;5040824;28;20391;-35
2024/02/23 00:26:11;;;;;;;2.70;1.10;;;6.10;99.90;;;;;;5041393;28;20064;-33
2024/02/23 00:28:37;;;;;;;1.35;0.60;;;6.10;99.90;;;;;;5041161;28;20886;-33
2024/02/23 00:31:02;;;;;;;2.95;0.70;;;6.20;99.90;;;;;;5040738;28;20483;-32
2024/02/23 00:33:28;;;;;;;4.75;2.30;;;6.20;99.90;;;;;;5041216;28;20031;-33
2024/02/23 00:35:53;;;;;;;2.65;1.00;;;6.20;99.90;;;;;;5041151;28;20721;-34
2024/02/23 00:38:19;;;;;;;2.47;0.65;;;6.20;99.90;;;;;;5041525;28;20116;-36
2024/02/23 00:40:45;;;;;;;2.70;0.88;;;6.20;99.90;;;;;;5041545;28;20724;-34
2024/02/23 00:43:10;;;;;;;2.42;0.90;;;6.20;99.90;;;;;;5040126;28;20025;-36
2024/02/23 00:45:39;;;;;;;2.67;1.00;;;6.20;99.90;;;;;;5041611;28;20039;-37
2024/02/23 00:48:06;;;;;;;2.30;1.00;;;6.20;99.90;;;;;;5041573;28;20017;-33
2024/02/23 00:50:32;;;;;;;2.50;1.00;;;6.20;99.90;;;;;;5040666;28;20033;-37
2024/02/23 00:52:57;;;;;;;2.47;0.98;;;6.20;99.90;;;;;;5041796;28;20029;-32
2024/02/23 00:55:25;;;;;;;1.27;0.90;;;6.20;99.90;;;;;;5041181;28;20031;-36
2024/02/23 00:57:50;;;;;;;3.55;0.80;;;6.20;99.90;;;;;;5041181;28;20029;-35
2024/02/23 01:00:16;;;;;;;3.58;0.90;;;6.10;99.90;;;;;;5041254;28;20052;-37
2024/02/23 01:02:42;;;;;;;3.40;0.70;;;6.00;99.90;;;;;;5041098;28;20059;-37
2024/02/23 01:05:10;;;;;;;1.70;0.60;;;5.90;99.90;;;;;;5039096;28;20060;-37
2024/02/23 01:07:36;;;;;;;2.78;0.90;;;5.90;99.90;;;;;;5039521;28;20032;-33
2024/02/23 01:10:01;;;;;;;2.22;0.70;;;5.90;99.90;;;;;;5039355;28;20571;-37
2024/02/23 01:12:27;;;;;;;2.03;0.82;;;5.90;99.90;;;;;;5038308;28;20515;-35
2024/02/23 01:14:53;;;;;;;1.58;1.15;;;5.90;99.90;;;;;;5039331;28;20565;-37
2024/02/23 01:17:19;;;;;;;1.90;1.15;;;5.90;99.90;;;;;;5038757;28;20753;-32
2024/02/23 01:19:47;;;;;;;2.22;1.60;;;6.00;99.90;;;;;;5039722;28;20602;-35
2024/02/23 01:22:14;;;;;;;2.05;1.60;;;6.00;99.90;;;;;;5040220;28;20047;-35
2024/02/23 01:24:43;;;;;;;3.40;2.10;;;6.00;99.90;;;;;;5039562;28;20029;-35
2024/02/23 01:27:08;;;;;;;4.03;1.95;;;6.10;99.90;;;;;;5039919;28;20386;-34
2024/02/23 01:29:34;;;;;;;4.05;2.50;;;6.10;99.90;;;;;;5040327;28;20036;-36
2024/02/23 01:32:00;;;;;;;4.15;2.30;;;6.20;99.90;;;;;;5040433;28;20734;-35
2024/02/23 01:34:25;;;;;;;4.22;2.92;;;6.20;99.90;;;;;;5039783;28;20043;-36
2024/02/23 01:36:51;;;;;;;4.40;2.33;;;6.20;99.90;;;;;;5036936;28;20021;-36
2024/02/23 01:39:16;;;;;;;4.03;2.17;;;6.20;99.90;;;;;;5039982;28;20028;-36
2024/02/23 01:41:43;;;;;;;2.20;2.00;;;6.20;99.90;;;;;;5040563;28;20028;-32
2024/02/23 01:44:10;;;;;;;3.40;2.35;;;6.20;99.90;;;;;;5040599;28;20021;-34
2024/02/23 01:46:36;;;;;;;4.43;2.47;;;6.20;99.90;;;;;;5039299;28;20143;-34
2024/02/23 01:49:03;;;;;;;5.00;1.60;;;6.20;99.90;;;;;;5040543;28;20033;-36
2024/02/23 01:51:29;;;;;;;3.55;1.70;;;6.10;99.90;;;;;;5040169;28;20484;-32
2024/02/23 01:53:55;;;;;;;3.28;1.70;;;6.10;99.90;;;;;;5039995;28;20023;-36
2024/02/23 01:56:20;;;;;;;5.85;1.98;;;6.10;99.90;;;;;;5039153;28;20028;-35
2024/02/23 01:58:47;;;;;;;2.28;1.45;;;6.00;99.90;;;;;;5040959;28;20067;-35
2024/02/23 02:01:12;;;;;;;2.45;1.52;;;6.00;99.90;;;;;;5039548;28;20024;-36
2024/02/23 02:03:41;;;;;;;2.75;1.40;;;5.90;99.90;;;;;;5040840;28;20013;-35
2024/02/23 02:06:10;;;;;;;4.35;1.67;;;5.90;99.90;;;;;;5040401;28;20122;-36
2024/02/23 02:08:36;;;;;;;1.85;1.10;;;5.90;99.90;;;;;;5039096;28;20025;-35
2024/02/23 02:11:02;;;;;;;1.85;1.30;;;5.80;99.90;;;;;;5040263;28;20064;-35
2024/02/23 02:13:30;;;;;;;2.50;1.00;;;5.80;99.90;;;;;;5039750;28;20179;-35
2024/02/23 02:16:00;;;;;;;3.20;1.70;;;5.80;99.90;;;;;;5039708;28;20102;-37
2024/02/23 02:18:29;;;;;;;2.35;1.23;;;5.80;99.90;;;;;;5039093;28;20476;-36
2024/02/23 02:20:57;;;;;;;2.78;1.05;;;5.80;99.90;;;;;;5040128;28;20029;-36
2024/02/23 02:23:22;;;;;;;1.85;1.00;;;5.80;99.90;;;;;;5039158;28;20056;-34
2024/02/23 02:25:57;;;;;;;3.47;1.20;;;5.70;99.90;;;;;;5040374;28;20112;-35
2024/02/23 02:28:24;;;;;;;3.63;1.25;;;5.70;99.90;;;;;;5038436;28;20488;-32
2024/02/23 02:30:51;;;;;;;2.63;0.88;;;5.70;99.90;;;;;;5046335;28;20021;-36
2024/02/23 02:33:17;;;;;;;1.65;0.82;;;5.70;99.90;;;;;;5046516;28;20025;-35
2024/02/23 02:35:42;;;;;;;2.20;0.90;;;5.70;99.90;;;;;;5046759;28;20139;-35
2024/02/23 02:38:08;;;;;;;2.80;1.13;;;5.70;99.90;;;;;;5047007;28;20025;-30
2024/02/23 02:40:33;;;;;;;1.38;0.60;;;5.70;99.90;;;;;;5046218;28;20029;-36
2024/02/23 02:42:59;;;;;;;3.15;0.95;;;5.70;99.90;;;;;;5046045;28;20032;-38
2024/02/23 02:45:24;;;;;;;2.60;0.80;;;5.70;99.90;;;;;;5046385;28;20101;-33
2024/02/23 02:47:50;;;;;;;2.92;0.95;;;5.70;99.90;;;;;;5046585;28;20031;-35
2024/02/23 02:50:16;;;;;;;3.38;0.80;;;5.70;99.90;;;;;;5046064;28;20755;-31
2024/02/23 02:52:42;;;;;;;4.28;1.30;;;5.70;99.90;;;;;;5046074;28;20127;-35
2024/02/23 02:55:08;;;;;;;4.38;1.00;;;5.70;99.90;;;;;;5045813;28;20930;-36
2024/02/23 02:57:35;;;;;;;4.93;0.90;;;5.70;99.90;;;;;;5045470;28;20098;-37
2024/02/23 03:00:08;;;;;;;4.60;0.85;;;5.80;99.90;;;;;;5046663;28;20025;-31
2024/02/23 03:02:34;;;;;;;;;;;5.80;99.90;;;;;;5046567;28;20211;-33
2024/02/23 03:05:00;;;;;;;1.88;0.75;;;5.80;99.90;;;;;;5045384;28;19996;-36
2024/02/23 03:07:26;;;;;;;3.17;0.90;;;5.80;99.90;;;;;;5045720;28;20017;-36
2024/02/23 03:09:57;;;;;;;2.42;0.98;;;5.80;99.90;;;;;;5045794;28;20052;-34
2024/02/23 03:12:23;;;;;;;3.45;1.20;;;5.80;99.90;;;;;;5044758;28;20049;-35
2024/02/23 03:14:49;;;;;;;2.80;0.90;;;5.90;99.90;;;;;;5045852;28;20028;-37
2024/02/23 03:17:15;;;;;;;3.53;0.77;;;5.90;99.90;;;;;;5046220;28;20029;-34
2024/02/23 03:19:40;;;;;;;2.72;0.80;;;5.90;99.90;;;;;;5045382;28;20031;-32
2024/02/23 03:22:06;;;;;;;2.13;1.00;;;5.80;99.90;;;;;;5045805;28;20411;-36
2024/02/23 03:24:33;;;;;;;3.08;1.10;;;5.80;99.90;;;;;;5045834;28;20114;-34
2024/02/23 03:26:58;;;;;;;3.60;0.98;;;5.80;99.90;;;;;;5045313;28;20041;-36
2024/02/23 03:29:24;;;;;;;3.75;1.02;;;5.80;99.90;;;;;;5045970;28;20025;-36
2024/02/23 03:31:51;;;;;;;3.47;1.17;;;5.80;99.90;;;;;;5045840;28;20136;-33
2024/02/23 03:34:17;;;;;;;2.60;1.05;;;5.80;99.90;;;;;;5045625;28;20028;-35
2024/02/23 03:36:43;;;;;;;5.20;1.15;;;5.80;99.90;;;;;;5046527;28;20029;-36
2024/02/23 03:39:08;;;;;;;3.42;1.20;;;5.80;99.90;;;;;;5045271;28;20025;-35
2024/02/23 03:41:34;;;;;;;3.17;0.85;;;5.90;99.90;;;;;;5042189;28;20036;-34
2024/02/23 03:44:00;;;;;;;3.10;0.98;;;5.90;99.90;;;;;;5043452;28;20032;-35
2024/02/23 03:46:25;;;;;;;3.35;0.93;;;5.90;99.90;;;;;;5041217;28;20549;-35
2024/02/23 03:48:51;;;;;;;1.70;0.77;;;6.00;99.90;;;;;;5042471;28;20108;-36
2024/02/23 03:51:17;;;;;;;2.22;1.00;;;6.00;99.90;;;;;;5042406;28;20100;-35
2024/02/23 03:53:43;;;;;;;4.32;0.98;;;6.00;99.90;;;;;;5041568;28;20573;-35
2024/02/23 03:56:09;;;;;;;3.55;1.00;;;6.00;99.90;;;;;;5041471;28;20040;-35
2024/02/23 03:58:34;;;;;;;3.60;1.10;;;5.90;99.90;;;;;;5042282;28;20037;-35
2024/02/23 04:01:00;;;;;;;3.42;1.10;;;5.90;99.90;;;;;;5041499;28;20037;-36
2024/02/23 04:03:25;;;;;;;1.98;1.00;;;5.90;99.90;;;;;;5042044;28;20040;-37
2024/02/23 04:05:51;;;;;;;5.97;1.75;;;5.80;99.90;;;;;;5042627;28;20036;-35
2024/02/23 04:08:16;;;;;;;3.65;1.00;;;5.80;99.90;;;;;;5041648;28;20830;-37
2024/02/23 04:10:42;;;;;;;4.05;1.13;;;5.80;99.90;;;;;;5041514;28;20029;-32
2024/02/23 04:13:08;;;;;;;1.55;1.00;;;5.80;99.90;;;;;;5041676;28;20132;-33
2024/02/23 04:15:34;;;;;;;2.72;1.20;;;5.80;99.90;;;;;;5041697;28;20033;-34
2024/02/23 04:17:59;;;;;;;1.63;1.00;;;5.80;99.90;;;;;;5042506;28;20831;-35
2024/02/23 04:20:25;;;;;;;4.45;1.13;;;5.80;99.90;;;;;;5041820;28;20029;-37
2024/02/23 04:22:50;;;;;;;3.45;1.20;;;5.80;99.90;;;;;;5041570;28;20025;-40
2024/02/23 04:25:16;;;;;;;2.03;1.00;;;5.80;99.90;;;;;;5041504;28;20095;-38
2024/02/23 04:27:43;;;;;;;3.55;1.13;;;5.80;99.90;;;;;;5041797;28;20472;-34
2024/02/23 04:30:12;;;;;;;3.40;1.00;;;5.80;99.90;;;;;;5040679;28;20033;-33
2024/02/23 04:32:38;;;;;;;3.65;1.17;;;5.80;99.90;;;;;;5040763;28;20028;-34
2024/02/23 04:35:05;;;;;;;3.72;1.10;;;5.80;99.90;;;;;;5041223;28;20094;-37
2024/02/23 04:37:30;;;;;;;2.08;1.00;;;5.80;99.90;;;;;;5040494;28;20104;-35
2024/02/23 04:39:56;;;;;;;2.28;1.20;;;5.80;99.90;;;;;;5040523;28;20031;-37
2024/02/23 04:42:21;;;;;;;3.80;1.02;;;5.80;99.90;;;;;;5039375;28;20053;-38
2024/02/23 04:44:49;;;;;;;4.22;1.58;;;5.90;99.90;;;;;;5040502;28;20039;-37
2024/02/23 04:47:14;;;;;;;5.40;1.33;;;5.90;99.90;;;;;;5039923;28;20033;-36
2024/02/23 04:49:40;;;;;;;3.30;1.08;;;5.90;99.90;;;;;;5040140;28;20032;-36
2024/02/23 04:52:08;;;;;;;3.25;1.30;;;5.90;99.90;;;;;;5039600;28;20627;-37
2024/02/23 04:54:35;;;;;;;3.78;1.10;;;5.90;99.90;;;;;;5041600;28;20021;-34
2024/02/23 04:57:00;;;;;;;2.03;0.88;;;5.90;99.90;;;;;;5040635;28;20480;-34
2024/02/23 04:59:26;;;;;;;2.20;1.00;;;5.90;99.90;;;;;;5041078;28;20039;-36
2024/02/23 05:01:51;;;;;;;2.95;1.08;;;5.90;99.90;;;;;;5041399;28;20036;-30
2024/02/23 05:04:17;;;;;;;2.65;0.80;;;5.90;99.90;;;;;;5040862;28;20105;-36
2024/02/23 05:06:43;;;;;;;2.35;1.10;;;5.90;99.90;;;;;;5041115;28;20025;-36
2024/02/23 05:09:09;;;;;;;3.03;1.00;;;5.90;99.90;;;;;;5041093;28;20044;-33
2024/02/23 05:11:35;;;;;;;3.10;1.05;;;6.00;99.90;;;;;;5040182;28;20144;-33
2024/02/23 05:14:00;;;;;;;2.35;0.90;;;6.00;99.90;;;;;;5041544;28;20055;-36
2024/02/23 05:16:26;;;;;;;2.03;0.90;;;6.10;99.90;;;;;;5041029;28;20052;-34
2024/02/23 05:18:52;;;;;;;2.58;0.90;;;6.10;99.90;;;;;;5040853;28;20078;-37
2024/02/23 05:21:17;;;;;;;2.22;0.80;;;6.10;99.90;;;;;;5042565;28;20500;-33
2024/02/23 05:23:43;;;;;;;2.70;1.13;;;6.10;99.90;;;;;;5041352;28;20368;-37
2024/02/23 05:26:08;;;;;;;2.55;0.98;;;6.10;99.90;;;;;;5040226;28;20506;-36
2024/02/23 05:28:34;;;;;;;4.28;1.13;;;6.20;99.90;;;;;;5041219;28;20741;-35
2024/02/23 05:31:03;;;;;;;1.40;0.80;;;6.20;99.90;;;;;;5039611;28;20086;-36
2024/02/23 05:33:29;;;;;;;1.52;0.88;;;6.30;99.90;;;;;;5038030;28;20135;-37
2024/02/23 05:35:54;;;;;;;3.45;1.17;;;6.30;99.90;;;;;;5038973;28;20035;-35
2024/02/23 05:38:20;;;;;;;3.58;1.00;;;6.30;99.90;;;;;;5038737;28;20090;-35
2024/02/23 05:40:47;;;;;;;4.43;1.42;;;6.40;99.90;;;;;;5040283;28;20640;-37
2024/02/23 05:43:12;;;;;;;4.88;1.17;;;6.40;99.90;;;;;;5039665;28;20028;-36
2024/02/23 05:45:38;;;;;;;3.72;1.15;;;6.40;99.90;;;;;;5039665;28;20169;-35
2024/02/23 05:48:04;;;;;;;2.58;1.05;;;6.40;99.90;;;;;;5040633;28;20052;-41
2024/02/23 05:50:31;;;;;;;2.35;0.90;;;6.40;99.90;;;;;;5040617;28;20033;-36
2024/02/23 05:52:58;;;;;;;2.67;0.65;;;6.40;99.90;;;;;;5040310;28;20140;-39
2024/02/23 05:55:23;;;;;;;4.03;0.90;;;6.40;99.90;;;;;;5040013;28;20815;-36
2024/02/23 05:57:50;;;;;;;2.55;0.73;;;6.50;99.90;;;;;;5040752;28;20037;-32
2024/02/23 06:00:18;;;;;;;1.83;0.80;;;6.50;99.90;;;;;;5039675;28;20044;-37
2024/02/23 06:02:44;;;;;;;2.65;1.00;;;6.50;99.90;;;;;;5041009;28;20510;-35
2024/02/23 06:05:11;;;;;;;2.80;1.00;;;6.50;99.90;;;;;;5039262;28;20119;-30
2024/02/23 06:07:36;;;;;;;3.25;1.17;;;6.50;99.90;;;;;;5039944;28;20463;-34
2024/02/23 06:10:02;;;;;;;1.88;1.10;;;6.50;99.90;;;;;;5040669;28;20477;-34
2024/02/23 06:12:28;;;;;;;2.70;1.08;;;6.50;99.90;;;;;;5039861;28;20721;-34
2024/02/23 06:14:55;;;;;;;1.48;0.93;;;6.50;99.90;;;;;;5040105;28;20099;-33
2024/02/23 06:17:21;;;;;;;4.80;1.35;;;6.60;99.90;;;;;;5039728;28;20055;-37
2024/02/23 06:19:46;;;;;;;2.03;0.98;;;6.60;99.90;;;;;;5040155;28;20025;-32
2024/02/23 06:22:12;;;;;;;3.40;1.10;;;6.50;99.90;;;;;;5039525;28;20087;-34
2024/02/23 06:24:38;;;;;;;1.98;1.20;;;6.50;99.90;;;;;;5039171;28;20037;-37
2024/02/23 06:27:03;;;;;;;1.85;1.00;;;6.50;99.90;;;;;;5039926;28;20142;-37
2024/02/23 06:29:29;;;;;;;3.05;1.25;;;6.50;99.90;;;;;;5039167;28;20025;-36
2024/02/23 06:31:55;;;;;;;3.67;1.23;;;6.50;99.90;;;;;;5040299;28;20064;-33
2024/02/23 06:34:21;;;;;;;3.65;1.17;;;6.50;99.90;;;;;;5039802;28;20834;-33
2024/02/23 06:36:46;;;;;;;2.67;1.27;;;6.50;99.90;;;;;;5039431;28;20029;-35
2024/02/23 06:39:12;;;;;;;2.92;1.17;;;6.40;99.90;;;;;;5039191;28;20029;-34
2024/02/23 06:41:39;;;;;;;2.80;1.73;;;6.40;99.90;;;;;;5038455;28;20148;-33
2024/02/23 06:44:05;;;;;;;3.53;1.33;;;6.40;99.90;;;;;;5039915;28;20029;-37
2024/02/23 06:46:30;;;;;;;1.63;1.10;;;6.50;99.90;;;;;;5038646;28;20041;-36
2024/02/23 06:48:56;;;;;;;3.72;0.90;;;6.50;99.90;;;;;;5038472;28;20086;-34
2024/02/23 06:51:21;;;;;;;0.88;0.70;;;6.50;99.90;;;;;;5038357;28;20029;-36
2024/02/23 06:53:47;;;;;;;2.95;0.98;;;6.60;99.90;;;;;;5039329;28;20115;-36
2024/02/23 06:56:13;;;;;;;1.27;1.00;;;6.60;99.90;;;;;;5038050;28;20155;-35
2024/02/23 06:58:39;;;;;;;2.08;0.90;;;6.60;99.90;;;;;;5039464;28;20029;-37
2024/02/23 07:01:06;;;;;;;1.67;0.75;;;6.60;99.90;;;;;;5039020;28;20036;-37
2024/02/23 07:03:32;;;;;;;2.13;1.00;;;6.60;99.90;;;;;;5038437;28;20063;-37
2024/02/23 07:05:58;;;;;;;3.50;1.15;;;6.70;99.90;;;;;;5039675;28;20033;-33
2024/02/23 07:08:24;;;;;;;3.67;0.88;;;6.70;99.90;;;;;;5039207;28;20033;-33
2024/02/23 07:10:49;;;;;;;2.10;0.90;;;6.70;99.90;;;;;;5038810;28;20029;-36
2024/02/23 07:13:15;;;;;;;2.35;1.05;;;6.80;99.90;;;;;;5039183;28;20575;-34
2024/02/23 07:15:41;;;;;;;2.60;1.00;;;6.80;99.90;;;;;;5040457;28;20033;-34
2024/02/23 07:18:08;;;;;;;2.80;1.10;;;6.80;99.90;;;;;;5042670;28;20029;-32
2024/02/23 07:20:35;;;;;;;3.25;1.10;;;6.80;99.90;;;;;;5043785;28;20048;-36
2024/02/23 07:23:01;;;;;;;3.80;1.20;;;6.80;99.90;;;;;;5043132;28;20025;-37
2024/02/23 07:25:26;;;;;;;2.03;0.80;;;6.90;99.90;;;;;;5042786;28;20067;-36
2024/02/23 07:27:52;;;;;;;2.33;0.80;;;6.90;99.90;;;;;;5043660;28;20121;-33
2024/02/23 07:30:18;;;;;;;2.97;1.23;;;6.90;99.90;;;;;;5043490;28;20025;-35
2024/02/23 07:32:44;;;;;;;2.28;0.70;;;6.90;99.90;;;;;;5042726;28;20029;-33
2024/02/23 07:35:10;;;;;;;2.15;0.70;;;6.90;99.90;;;;;;5042779;28;20060;-35
2024/02/23 07:37:39;;;;;;;4.43;1.10;;;6.90;99.90;;;;;;5042837;28;20033;-33
2024/02/23 07:40:05;;;;;;;3.40;1.13;;;6.90;99.90;;;;;;5041854;28;20031;-37
2024/02/23 07:42:32;;;;;;;3.10;1.20;;;7.00;99.90;;;;;;5041782;28;20816;-38
2024/02/23 07:45:10;;;;;;;4.45;1.08;;;7.00;99.90;;;;;;5041918;28;20796;-37
2024/02/23 07:47:37;;;;;;;6.35;1.02;;;7.00;99.90;;;;;;5042449;28;20033;-34
2024/02/23 07:50:03;;;;;;;4.22;1.52;;;7.10;99.90;;;;;;5042813;28;20502;-38
2024/02/23 07:52:28;;;;;;;2.00;0.80;;;7.10;99.90;;;;;;5041774;28;20045;-36
2024/02/23 07:54:54;;;;;;;2.22;1.17;;;7.10;99.90;;;;;;5032030;28;20029;-37
2024/02/23 07:57:20;;;;;;;4.40;1.17;;;7.20;99.90;;;;;;5041993;28;20029;-39
2024/02/23 07:59:46;;;;;;;2.55;0.90;;;7.20;99.90;;;;;;5041792;28;20017;-35
2024/02/23 08:02:12;;;;;;;2.60;1.00;;;7.20;99.90;;;;;;5042063;28;20028;-36
2024/02/23 08:04:37;;;;;;;5.43;1.20;;;7.20;99.90;;;;;;5042325;28;20047;-37
2024/02/23 08:07:04;;;;;;;5.13;1.25;;;7.30;99.90;;;;;;5042152;28;20514;-38
2024/02/23 08:09:30;;;;;;;2.13;1.00;;;7.30;99.90;;;;;;5041489;28;20025;-38
2024/02/23 08:11:55;;;;;;;2.05;1.10;;;7.40;99.90;;;;;;5042791;28;20126;-37
2024/02/23 08:14:21;;;;;;;5.05;1.20;;;7.50;99.90;;;;;;5041111;28;20375;-39
2024/02/23 08:16:47;;;;;;;4.82;1.30;;;7.50;99.90;;;;;;5042295;28;20025;-35
2024/02/23 08:19:15;;;;;;;4.50;1.80;;;7.60;99.90;;;;;;5042126;28;20021;-37
2024/02/23 08:21:41;;;;;;;3.28;0.80;;;7.60;99.90;;;;;;5041210;28;20254;-39
2024/02/23 08:24:10;;;;;;;2.88;0.82;;;7.60;99.90;;;;;;5041726;28;20529;-36
2024/02/23 08:26:38;;;;;;;5.43;0.98;;;7.60;99.90;;;;;;5041219;28;20053;-37
2024/02/23 08:29:04;;;;;;;4.82;0.80;;;7.60;99.90;;;;;;5040348;28;20040;-33
2024/02/23 08:31:30;;;;;;;3.13;0.90;;;7.60;99.90;;;;;;5041823;28;20808;-37
2024/02/23 08:33:56;;;;;;;2.53;1.10;;;7.60;99.90;;;;;;5042319;28;20072;-38
2024/02/23 08:36:21;;;;;;;3.50;1.00;;;7.60;99.90;;;;;;5040875;28;20524;-35
2024/02/23 08:38:47;;;;;;;5.15;1.08;;;7.60;99.90;;;;;;5041976;28;20045;-32
2024/02/23 08:41:13;;;;;;;2.47;1.10;;;7.60;99.90;;;;;;5041191;28;20021;-34
2024/02/23 08:43:49;;;;;;;2.17;1.02;;;7.70;99.90;;;;;;5041731;28;20630;-36
2024/02/23 08:46:15;;;;;;;3.50;1.00;;;7.70;99.90;;;;;;5038452;28;20076;-36
2024/02/23 08:48:41;;;;;;;3.80;1.40;;;7.80;99.90;;;;;;5040798;28;20132;-39
2024/02/23 08:51:06;;;;;;;3.20;1.10;;;7.80;99.90;;;;;;5041509;28;20551;-34
2024/02/23 08:53:34;;;;;;;2.58;0.90;;;7.90;99.90;;;;;;5040966;28;20427;-37
2024/02/23 08:56:00;;;;;;;2.22;0.80;;;8.00;99.90;;;;;;5040093;28;20052;-33
2024/02/23 08:58:29;;;;;;;2.95;0.98;;;8.10;99.90;;;;;;5040962;28;20055;-37
2024/02/23 09:00:55;;;;;;;3.45;1.00;;;8.10;99.90;;;;;;5040990;28;20035;-33
2024/02/23 09:03:21;;;;;;;3.00;0.77;;;8.10;99.90;;;;;;5039914;28;20025;-35
2024/02/23 09:05:48;;;;;;;3.05;0.90;;;8.10;99.90;;;;;;5041401;28;20589;-36
2024/02/23 09:08:14;;;;;;;2.90;0.90;;;8.10;99.90;;;;;;5040925;28;20029;-34
2024/02/23 09:10:39;;;;;;;1.95;1.00;;;8.10;99.90;;;;;;5040508;28;20039;-37
2024/02/23 09:13:05;;;;;;;4.50;1.00;;;8.10;99.90;;;;;;5040295;28;20534;-35
2024/02/23 09:15:31;;;;;;;2.15;1.08;;;8.10;99.90;;;;;;5040003;28;20036;-37
2024/02/23 09:17:56;;;;;;;3.08;0.95;;;8.10;99.90;;;;;;5040227;28;20029;-37
2024/02/23 09:20:22;;;;;;;3.65;0.98;;;8.10;99.90;;;;;;5040412;28;20037;-36
2024/02/23 09:22:49;;;;;;;4.00;1.35;;;8.10;99.90;;;;;;5040887;28;20112;-35
2024/02/23 09:25:14;;;;;;;6.57;1.40;;;8.10;99.90;;;;;;5039394;28;20029;-37
2024/02/23 09:27:43;;;;;;;3.63;0.90;;;8.10;99.90;;;;;;5039955;28;20036;-36
2024/02/23 09:30:11;;;;;;;4.40;1.52;;;8.10;99.90;;;;;;5040463;28;20105;-37
2024/02/23 09:32:37;;;;;;;1.30;0.73;;;8.10;99.90;;;;;;5038788;28;20059;-40
2024/02/23 09:35:03;;;;;;;2.35;0.90;;;8.10;99.90;;;;;;5040730;28;20041;-36
2024/02/23 09:37:29;;;;;;;2.63;0.93;;;8.10;99.90;;;;;;5039765;28;20025;-34
2024/02/23 09:39:54;;;;;;;2.95;1.20;;;8.10;99.90;;;;;;5039633;28;20386;-36
2024/02/23 09:42:25;;;;;;;3.25;1.00;;;8.10;99.90;;;;;;5039437;28;20033;-36
2024/02/23 09:44:59;;;;;;;3.35;1.10;;;8.20;99.90;;;;;;5040188;28;20021;-37
2024/02/23 09:47:28;;;;;;;3.20;0.85;;;8.20;99.90;;;;;;5039604;28;20040;-36
2024/02/23 09:49:55;;;;;;;3.20;1.00;;;8.20;99.90;;;;;;5040192;28;20464;-35
2024/02/23 09:52:22;;;;;;;3.65;1.38;;;8.20;99.90;;;;;;5038830;28;20037;-33
2024/02/23 09:54:48;;;;;;;3.25;1.30;;;8.30;99.90;;;;;;5040215;28;20682;-37
2024/02/23 09:57:15;;;;;;;2.40;0.98;;;8.30;99.90;;;;;;5040158;28;20027;-33
2024/02/23 09:59:44;;;;;;;2.67;1.02;;;8.30;99.90;;;;;;5039624;28;20021;-36
2024/02/23 10:02:14;;;;;;;1.27;0.95;;;8.40;99.90;;;;;;5039728;28;20032;-35
2024/02/23 10:04:41;;;;;;;2.00;0.95;;;8.50;99.90;;;;;;5038912;28;20036;-34
2024/02/23 10:07:07;;;;;;;4.40;1.23;;;8.60;99.90;;;;;;5038313;28;20025;-31
2024/02/23 10:09:35;;;;;;;3.10;0.90;;;8.70;99.90;;;;;;5039380;28;20029;-34
2024/02/23 10:12:02;;;;;;;1.95;0.80;;;8.70;99.90;;;;;;5039365;28;20756;-33
2024/02/23 10:14:27;;;;;;;1.50;0.80;;;8.60;99.90;;;;;;5038498;28;20040;-34
2024/02/23 10:16:55;;;;;;;1.90;0.93;;;8.60;99.90;;;;;;5038977;28;20029;-34
2024/02/23 10:19:28;;;;;;;1.88;0.90;;;8.50;99.90;;;;;;5038724;28;20041;-35
2024/02/23 10:21:54;;;;;;;3.50;0.80;;;8.50;99.90;;;;;;5038771;28;20044;-33
2024/02/23 10:24:20;;;;;;;3.42;1.08;;;8.40;99.90;;;;;;5037457;28;20033;-38
2024/02/23 10:26:46;;;;;;;3.72;1.05;;;8.30;99.90;;;;;;5039269;28;20033;-34
2024/02/23 10:29:12;;;;;;;2.75;0.90;;;8.30;99.90;;;;;;5038959;28;20032;-36
2024/02/23 10:31:38;;;;;;;2.78;0.85;;;8.30;99.90;;;;;;5039160;28;20115;-35
2024/02/23 10:34:13;;;;;;;2.65;1.08;;;8.20;99.90;;;;;;5038960;28;20021;-34
2024/02/23 10:36:50;;;;;;;1.90;0.80;;;8.20;99.90;;;;;;5019247;28;20033;-36
2024/02/23 10:39:19;;;;;;;3.53;0.93;;;8.20;99.90;;;;;;5034966;28;20509;-30
2024/02/23 10:42:01;;;;;;;3.00;1.10;;;8.10;99.90;;;;;;5038858;28;20083;-34
2024/02/23 10:44:28;;;;;;;2.75;0.90;;;8.10;99.90;;;;;;5039341;28;20017;-35
2024/02/23 10:46:55;;;;;;;2.88;0.82;;;8.10;99.90;;;;;;5039832;28;20044;-37
2024/02/23 10:49:27;;;;;;;2.65;0.80;;;8.10;99.90;;;;;;5038142;28;20479;-35
2024/02/23 10:51:53;;;;;;;3.42;1.00;;;8.20;99.90;;;;;;5043152;28;20114;-34
2024/02/23 10:54:22;;;;;;;2.33;0.77;;;8.30;99.90;;;;;;5042642;28;20020;-37
2024/02/23 10:56:49;;;;;;;2.55;0.93;;;8.40;99.90;;;;;;5042952;28;20032;-33
2024/02/23 10:59:18;;;;;;;2.92;0.70;;;8.50;99.90;;;;;;5043489;28;20460;-34
2024/02/23 11:01:56;;;;;;;2.28;0.77;;;8.50;99.90;;;;;;5043798;28;20132;-35
2024/02/23 11:04:23;;;;;;;1.25;0.70;;;8.50;99.90;;;;;;5042434;28;20108;-36
2024/02/23 11:06:54;;;;;;;4.68;1.40;;;8.50;99.90;;;;;;5043179;28;20041;-37
2024/02/23 11:09:24;;;;;;;1.75;1.10;;;8.60;99.90;;;;;;5041841;28;20030;-35
2024/02/23 11:11:57;;;;;;;1.85;0.80;;;8.50;99.90;;;;;;5042793;28;20541;-35
2024/02/23 11:14:36;;;;;;;1.20;0.70;;;8.60;99.90;;;;;;5042295;28;20031;-35
2024/02/23 11:17:03;;;;;;;1.23;0.80;;;8.60;99.90;;;;;;5042309;28;20029;-33
2024/02/23 11:19:34;;;;;;;2.05;0.68;;;8.50;99.90;;;;;;5042455;28;20029;-36
2024/02/23 11:22:01;;;;;;;1.52;0.65;;;8.60;99.90;;;;;;5043019;28;20037;-37
2024/02/23 11:24:30;;;;;;;1.20;0.60;;;8.60;99.90;;;;;;5041547;28;20021;-36
2024/02/23 11:27:00;;;;;;;0.77;0.60;;;8.60;99.90;;;;;;5042815;28;20585;-35
2024/02/23 11:29:39;;;;;;;0.50;0.45;;;8.50;99.90;;;;;;5042120;28;20056;-35
2024/02/23 11:32:13;;;;;;;2.95;0.70;;;8.60;99.90;;;;;;5041784;28;20032;-31
2024/02/23 11:34:39;;;;;;;1.15;0.47;;;8.60;99.90;;;;;;5042873;28;20130;-36
2024/02/23 11:37:11;;;;;;;1.08;0.52;;;8.70;99.90;;;;;;5041450;28;20021;-34
2024/02/23 11:39:40;;;;;;;0.80;0.60;;;8.70;99.90;;;;;;5042880;28;20036;-34
2024/02/23 11:42:06;;;;;;;1.38;0.60;;;8.80;99.90;;;;;;5038563;28;20025;-37
2024/02/23 11:44:32;;;;;;;1.75;0.80;;;8.70;99.90;;;;;;5041708;28;20498;-36
2024/02/23 11:46:59;;;;;;;1.27;0.70;;;8.80;99.90;;;;;;5042649;28;20041;-32
2024/02/23 11:49:31;;;;;;;0.80;0.60;;;8.80;99.90;;;;;;5042051;28;20025;-35
2024/02/23 11:51:57;;;;;;;0.80;0.40;;;8.90;99.90;;;;;;5041623;28;20053;-33
2024/02/23 11:54:23;;;;;;;1.95;0.70;;;8.90;99.90;;;;;;5042062;28;20871;-36
2024/02/23 11:56:49;;;;;;;1.90;1.00;;;9.00;99.90;;;;;;5042130;28;20076;-37
2024/02/23 11:59:16;;;;;;;2.47;0.90;;;9.00;99.90;;;;;;5041210;28;20029;-32
2024/02/23 12:01:41;;;;;;;1.52;0.70;;;9.00;99.90;;;;;;5040712;28;20542;-33
2024/02/23 12:04:07;;;;;;;1.80;0.68;;;9.00;99.90;;;;;;5041402;28;20029;-31
2024/02/23 12:06:34;;;;;;;1.88;0.80;;;9.00;99.90;;;;;;5040681;28;20870;-34
2024/02/23 12:09:01;;;;;;;0.98;0.68;;;9.00;99.90;;;;;;5042782;28;20507;-35
2024/02/23 12:11:27;;;;;;;0.90;0.60;;;9.00;99.90;;;;;;5041481;28;20460;-36
2024/02/23 12:13:53;;;;;;;1.30;0.70;;;9.00;99.90;;;;;;5041944;28;20025;-36
2024/02/23 12:16:21;;;;;;;1.45;0.70;;;8.90;99.90;;;;;;5041703;28;20363;-36
2024/02/23 12:18:53;;;;;;;1.75;1.05;;;8.90;99.90;;;;;;5042055;28;20895;-33
2024/02/23 12:21:19;;;;;;;1.58;0.80;;;8.80;99.90;;;;;;5040864;28;20554;-34
2024/02/23 12:23:47;;;;;;;1.13;0.65;;;8.80;99.90;;;;;;5041786;28;20044;-37
2024/02/23 12:26:14;;;;;;;3.58;0.85;;;8.80;99.90;;;;;;5040898;28;20522;-37
2024/02/23 12:28:43;;;;;;;1.83;1.00;;;8.80;99.90;;;;;;5041257;28;20397;-35
2024/02/23 12:31:09;;;;;;;1.75;0.98;;;8.80;99.90;;;;;;5041368;28;20033;-33
2024/02/23 12:33:47;;;;;;;2.33;0.80;;;8.90;99.90;;;;;;5040728;28;20032;-33
2024/02/23 12:36:13;;;;;;;2.95;1.70;;;8.90;99.90;;;;;;5041526;28;20033;-34
2024/02/23 12:38:39;;;;;;;1.15;0.80;;;8.90;99.90;;;;;;5041047;28;20024;-37
2024/02/23 12:41:05;;;;;;;1.35;0.70;;;9.00;99.90;;;;;;5040912;28;20524;-37
2024/02/23 12:43:30;;;;;;;3.00;0.70;;;9.00;99.90;;;;;;5041137;28;20032;-38
2024/02/23 12:45:58;;;;;;;1.58;0.70;;;9.00;99.90;;;;;;5041918;28;20052;-36
2024/02/23 12:48:26;;;;;;;2.60;0.80;;;9.00;99.90;;;;;;5040346;28;20748;-36
2024/02/23 12:50:53;;;;;;;2.50;0.80;;;9.00;99.90;;;;;;5041526;28;20025;-35
2024/02/23 12:53:36;;;;;;;2.53;0.75;;;9.10;99.90;;;;;;5040840;28;20523;-35
2024/02/23 12:56:03;;;;;;;0.98;0.70;;;9.10;99.90;;;;;;5041287;28;20703;-37